X  Zatvori METAR Podaci o vazduhoplovstvu     LYNI Nis Airport
Temperatura
72°F Temperatura
66°F Tačka Rose
83% Vlaga



Vetar
2 MPH
3 KM/H
1 M/S
2 KTS



Tiho
S
Trenutna situacija

Vedro Vedro
Vazdušni pritisak 1014.9 (hPa) - 29.97 (inHg)
Vidljivost 6 (Milja) - 9.7 (km)
Aerodrom
Aerodromski kod. LYNI

Lokacija: Nis Airport
Udaljenost: 63 (mi)

Metar:
LYNI 230500Z VRB02KT CAVOK 22/19 Q1015 NOSIG

Vreme: 23-07-2024 07:00 CEST